sensor_id;sensor_type;location;lat;lon;timestamp;temperature;humidity
18073;DHT22;9161;47.348;9.648;2023-08-24T00:04:08;21.60;99.90
18073;DHT22;9161;47.348;9.648;2023-08-24T00:09:10;21.50;99.90
18073;DHT22;9161;47.348;9.648;2023-08-24T00:14:15;21.40;99.90
18073;DHT22;9161;47.348;9.648;2023-08-24T00:19:20;21.30;99.90
18073;DHT22;9161;47.348;9.648;2023-08-24T00:24:22;21.30;99.90
18073;DHT22;9161;47.348;9.648;2023-08-24T00:29:25;21.30;99.90
18073;DHT22;9161;47.348;9.648;2023-08-24T00:34:28;21.20;99.90
18073;DHT22;9161;47.348;9.648;2023-08-24T00:39:29;21.10;99.90
18073;DHT22;9161;47.348;9.648;2023-08-24T00:44:33;21.10;99.90
18073;DHT22;9161;47.348;9.648;2023-08-24T00:49:36;21.00;99.90
18073;DHT22;9161;47.348;9.648;2023-08-24T00:54:39;21.30;99.90
18073;DHT22;9161;47.348;9.648;2023-08-24T00:59:44;21.30;99.90
18073;DHT22;9161;47.348;9.648;2023-08-24T01:04:47;21.20;99.90
18073;DHT22;9161;47.348;9.648;2023-08-24T01:09:49;21.10;99.90
18073;DHT22;9161;47.348;9.648;2023-08-24T01:15:03;20.90;99.90
18073;DHT22;9161;47.348;9.648;2023-08-24T01:20:07;20.90;99.90
18073;DHT22;9161;47.348;9.648;2023-08-24T01:25:14;20.80;99.90
18073;DHT22;9161;47.348;9.648;2023-08-24T01:30:19;21.10;99.90
18073;DHT22;9161;47.348;9.648;2023-08-24T01:35:23;21.00;99.90
18073;DHT22;9161;47.348;9.648;2023-08-24T01:40:30;20.90;99.90
18073;DHT22;9161;47.348;9.648;2023-08-24T01:45:40;20.70;99.90
18073;DHT22;9161;47.348;9.648;2023-08-24T01:50:44;20.70;99.90
18073;DHT22;9161;47.348;9.648;2023-08-24T01:55:47;20.50;99.90
18073;DHT22;9161;47.348;9.648;2023-08-24T02:00:51;20.50;99.90
18073;DHT22;9161;47.348;9.648;2023-08-24T02:05:56;20.40;99.90
18073;DHT22;9161;47.348;9.648;2023-08-24T02:11:00;20.30;99.90
18073;DHT22;9161;47.348;9.648;2023-08-24T02:16:05;20.30;99.90
18073;DHT22;9161;47.348;9.648;2023-08-24T02:21:10;20.20;99.90
18073;DHT22;9161;47.348;9.648;2023-08-24T02:26:14;20.30;99.90
18073;DHT22;9161;47.348;9.648;2023-08-24T02:31:18;20.10;99.90
18073;DHT22;9161;47.348;9.648;2023-08-24T02:36:24;20.20;99.90
18073;DHT22;9161;47.348;9.648;2023-08-24T02:41:27;20.10;99.90
18073;DHT22;9161;47.348;9.648;2023-08-24T02:46:30;20.10;99.90
18073;DHT22;9161;47.348;9.648;2023-08-24T02:51:32;20.20;99.90
18073;DHT22;9161;47.348;9.648;2023-08-24T02:56:35;20.10;99.90
18073;DHT22;9161;47.348;9.648;2023-08-24T03:01:40;20.20;99.90
18073;DHT22;9161;47.348;9.648;2023-08-24T03:06:46;20.10;99.90
18073;DHT22;9161;47.348;9.648;2023-08-24T03:11:50;20.10;99.90
18073;DHT22;9161;47.348;9.648;2023-08-24T03:16:54;20.00;99.90
18073;DHT22;9161;47.348;9.648;2023-08-24T03:21:56;19.90;99.90
18073;DHT22;9161;47.348;9.648;2023-08-24T03:26:59;20.00;99.90
18073;DHT22;9161;47.348;9.648;2023-08-24T03:32:04;20.10;99.90
18073;DHT22;9161;47.348;9.648;2023-08-24T03:37:10;20.30;99.90
18073;DHT22;9161;47.348;9.648;2023-08-24T03:42:15;20.20;99.90
18073;DHT22;9161;47.348;9.648;2023-08-24T03:47:19;20.10;99.90
18073;DHT22;9161;47.348;9.648;2023-08-24T03:52:22;20.00;99.90
18073;DHT22;9161;47.348;9.648;2023-08-24T03:57:24;19.80;99.90
18073;DHT22;9161;47.348;9.648;2023-08-24T04:02:28;19.90;99.90
18073;DHT22;9161;47.348;9.648;2023-08-24T04:07:29;19.90;99.90
18073;DHT22;9161;47.348;9.648;2023-08-24T04:12:32;19.90;99.90
18073;DHT22;9161;47.348;9.648;2023-08-24T04:17:36;19.90;99.90
18073;DHT22;9161;47.348;9.648;2023-08-24T04:22:41;19.90;99.90
18073;DHT22;9161;47.348;9.648;2023-08-24T04:27:44;19.80;99.90
18073;DHT22;9161;47.348;9.648;2023-08-24T04:32:49;19.70;99.90
18073;DHT22;9161;47.348;9.648;2023-08-24T04:37:52;19.70;99.90
18073;DHT22;9161;47.348;9.648;2023-08-24T04:42:57;19.90;99.90
18073;DHT22;9161;47.348;9.648;2023-08-24T04:48:00;20.30;99.90
18073;DHT22;9161;47.348;9.648;2023-08-24T04:53:05;20.20;99.90
18073;DHT22;9161;47.348;9.648;2023-08-24T04:58:11;20.10;99.90
18073;DHT22;9161;47.348;9.648;2023-08-24T05:03:17;20.00;99.90
18073;DHT22;9161;47.348;9.648;2023-08-24T05:08:20;20.10;99.90
18073;DHT22;9161;47.348;9.648;2023-08-24T05:13:27;20.40;99.90
18073;DHT22;9161;47.348;9.648;2023-08-24T05:18:33;20.50;99.90
18073;DHT22;9161;47.348;9.648;2023-08-24T05:23:35;20.50;99.90
18073;DHT22;9161;47.348;9.648;2023-08-24T05:28:38;20.40;99.90
18073;DHT22;9161;47.348;9.648;2023-08-24T05:33:41;20.60;99.90
18073;DHT22;9161;47.348;9.648;2023-08-24T05:38:43;20.70;99.90
18073;DHT22;9161;47.348;9.648;2023-08-24T05:43:50;20.90;99.90
18073;DHT22;9161;47.348;9.648;2023-08-24T05:48:57;21.20;99.90
18073;DHT22;9161;47.348;9.648;2023-08-24T05:54:01;21.30;99.90
18073;DHT22;9161;47.348;9.648;2023-08-24T05:59:03;21.70;99.90
18073;DHT22;9161;47.348;9.648;2023-08-24T06:04:08;22.10;99.90
18073;DHT22;9161;47.348;9.648;2023-08-24T06:09:12;22.50;99.90
18073;DHT22;9161;47.348;9.648;2023-08-24T06:14:16;22.80;99.90
18073;DHT22;9161;47.348;9.648;2023-08-24T06:19:21;23.10;99.90
18073;DHT22;9161;47.348;9.648;2023-08-24T06:24:27;23.30;99.90
18073;DHT22;9161;47.348;9.648;2023-08-24T06:29:32;23.60;99.90
18073;DHT22;9161;47.348;9.648;2023-08-24T06:34:38;23.90;99.90
18073;DHT22;9161;47.348;9.648;2023-08-24T06:39:40;24.30;99.90
18073;DHT22;9161;47.348;9.648;2023-08-24T06:44:42;24.50;99.90
18073;DHT22;9161;47.348;9.648;2023-08-24T06:49:46;24.80;99.90
18073;DHT22;9161;47.348;9.648;2023-08-24T06:54:50;25.10;99.90
18073;DHT22;9161;47.348;9.648;2023-08-24T06:59:56;25.50;99.90
18073;DHT22;9161;47.348;9.648;2023-08-24T07:05:00;25.90;99.90
18073;DHT22;9161;47.348;9.648;2023-08-24T07:10:07;26.10;99.90
18073;DHT22;9161;47.348;9.648;2023-08-24T07:15:10;26.50;99.90
18073;DHT22;9161;47.348;9.648;2023-08-24T07:20:14;26.90;99.90
18073;DHT22;9161;47.348;9.648;2023-08-24T07:25:21;27.00;99.90
18073;DHT22;9161;47.348;9.648;2023-08-24T07:30:25;27.20;99.90
18073;DHT22;9161;47.348;9.648;2023-08-24T07:35:35;27.40;99.90
18073;DHT22;9161;47.348;9.648;2023-08-24T07:40:40;27.80;99.90
18073;DHT22;9161;47.348;9.648;2023-08-24T07:45:43;28.40;99.90
18073;DHT22;9161;47.348;9.648;2023-08-24T07:50:47;28.60;99.90
18073;DHT22;9161;47.348;9.648;2023-08-24T07:55:49;29.00;99.90
18073;DHT22;9161;47.348;9.648;2023-08-24T08:00:52;29.10;99.90
18073;DHT22;9161;47.348;9.648;2023-08-24T08:05:56;29.30;99.90
18073;DHT22;9161;47.348;9.648;2023-08-24T08:11:00;29.70;99.90
18073;DHT22;9161;47.348;9.648;2023-08-24T08:16:02;30.40;99.90
18073;DHT22;9161;47.348;9.648;2023-08-24T08:21:10;30.40;99.90
18073;DHT22;9161;47.348;9.648;2023-08-24T08:26:14;30.00;99.90
18073;DHT22;9161;47.348;9.648;2023-08-24T08:31:16;29.60;99.90
18073;DHT22;9161;47.348;9.648;2023-08-24T08:36:23;30.40;99.90
18073;DHT22;9161;47.348;9.648;2023-08-24T08:41:28;30.70;99.90
18073;DHT22;9161;47.348;9.648;2023-08-24T08:46:32;30.70;99.90
18073;DHT22;9161;47.348;9.648;2023-08-24T08:51:36;30.90;99.90
18073;DHT22;9161;47.348;9.648;2023-08-24T08:56:39;30.90;99.90
18073;DHT22;9161;47.348;9.648;2023-08-24T09:01:43;30.40;99.90
18073;DHT22;9161;47.348;9.648;2023-08-24T09:06:48;30.20;99.90
18073;DHT22;9161;47.348;9.648;2023-08-24T09:11:50;30.90;99.90
18073;DHT22;9161;47.348;9.648;2023-08-24T09:16:53;31.80;99.90
18073;DHT22;9161;47.348;9.648;2023-08-24T09:21:58;31.80;99.90
18073;DHT22;9161;47.348;9.648;2023-08-24T09:27:15;31.70;99.90
18073;DHT22;9161;47.348;9.648;2023-08-24T09:32:22;30.90;99.90
18073;DHT22;9161;47.348;9.648;2023-08-24T09:37:26;30.90;99.90
18073;DHT22;9161;47.348;9.648;2023-08-24T09:42:28;31.60;99.90
18073;DHT22;9161;47.348;9.648;2023-08-24T09:47:30;31.10;99.90
18073;DHT22;9161;47.348;9.648;2023-08-24T09:52:34;31.80;99.90
18073;DHT22;9161;47.348;9.648;2023-08-24T09:57:39;32.40;99.90
18073;DHT22;9161;47.348;9.648;2023-08-24T10:02:47;32.80;99.90
18073;DHT22;9161;47.348;9.648;2023-08-24T10:07:54;33.30;99.90
18073;DHT22;9161;47.348;9.648;2023-08-24T10:13:00;33.20;99.90
18073;DHT22;9161;47.348;9.648;2023-08-24T10:18:06;33.70;99.90
18073;DHT22;9161;47.348;9.648;2023-08-24T10:23:11;33.50;99.90
18073;DHT22;9161;47.348;9.648;2023-08-24T10:28:15;34.10;99.90
18073;DHT22;9161;47.348;9.648;2023-08-24T10:33:18;34.90;99.90
18073;DHT22;9161;47.348;9.648;2023-08-24T10:38:28;34.40;99.90
18073;DHT22;9161;47.348;9.648;2023-08-24T10:43:34;35.00;99.90
18073;DHT22;9161;47.348;9.648;2023-08-24T10:48:57;35.50;99.90
18073;DHT22;9161;47.348;9.648;2023-08-24T10:54:03;35.70;99.90
18073;DHT22;9161;47.348;9.648;2023-08-24T10:59:13;36.30;99.90
18073;DHT22;9161;47.348;9.648;2023-08-24T11:04:18;36.60;99.90
18073;DHT22;9161;47.348;9.648;2023-08-24T11:09:24;37.10;99.90
18073;DHT22;9161;47.348;9.648;2023-08-24T11:14:29;38.00;99.90
18073;DHT22;9161;47.348;9.648;2023-08-24T11:19:32;38.10;99.90
18073;DHT22;9161;47.348;9.648;2023-08-24T11:24:38;38.30;99.90
18073;DHT22;9161;47.348;9.648;2023-08-24T11:29:42;37.90;97.80
18073;DHT22;9161;47.348;9.648;2023-08-24T11:34:45;37.30;99.20
18073;DHT22;9161;47.348;9.648;2023-08-24T11:39:50;38.50;97.80
18073;DHT22;9161;47.348;9.648;2023-08-24T11:44:54;38.70;99.80
18073;DHT22;9161;47.348;9.648;2023-08-24T11:49:56;39.10;99.30
18073;DHT22;9161;47.348;9.648;2023-08-24T11:55:03;39.90;98.30
18073;DHT22;9161;47.348;9.648;2023-08-24T12:00:09;39.40;98.30
18073;DHT22;9161;47.348;9.648;2023-08-24T12:05:25;39.60;96.20
18073;DHT22;9161;47.348;9.648;2023-08-24T12:10:31;38.90;97.10
18073;DHT22;9161;47.348;9.648;2023-08-24T12:15:35;37.80;96.30
18073;DHT22;9161;47.348;9.648;2023-08-24T12:20:37;38.80;98.90
18073;DHT22;9161;47.348;9.648;2023-08-24T12:25:44;39.50;94.30
18073;DHT22;9161;47.348;9.648;2023-08-24T12:30:48;39.60;94.30
18073;DHT22;9161;47.348;9.648;2023-08-24T12:35:52;39.50;94.40
18073;DHT22;9161;47.348;9.648;2023-08-24T12:40:56;40.10;96.00
18073;DHT22;9161;47.348;9.648;2023-08-24T12:45:59;40.40;96.30
18073;DHT22;9161;47.348;9.648;2023-08-24T12:51:03;40.90;95.90
18073;DHT22;9161;47.348;9.648;2023-08-24T12:56:08;40.40;94.30
18073;DHT22;9161;47.348;9.648;2023-08-24T13:01:12;39.50;94.20
18073;DHT22;9161;47.348;9.648;2023-08-24T13:06:14;39.70;94.50
18073;DHT22;9161;47.348;9.648;2023-08-24T13:11:22;40.30;94.10
18073;DHT22;9161;47.348;9.648;2023-08-24T13:16:27;39.90;93.30
18073;DHT22;9161;47.348;9.648;2023-08-24T13:21:35;39.80;92.80
18073;DHT22;9161;47.348;9.648;2023-08-24T13:26:44;40.20;93.70
18073;DHT22;9161;47.348;9.648;2023-08-24T13:31:48;41.10;91.30
18073;DHT22;9161;47.348;9.648;2023-08-24T13:36:54;40.10;92.00
18073;DHT22;9161;47.348;9.648;2023-08-24T13:42:01;40.60;92.70
18073;DHT22;9161;47.348;9.648;2023-08-24T13:47:05;41.40;91.80
18073;DHT22;9161;47.348;9.648;2023-08-24T13:52:10;41.50;91.60
18073;DHT22;9161;47.348;9.648;2023-08-24T13:57:18;42.10;90.80
18073;DHT22;9161;47.348;9.648;2023-08-24T14:02:21;41.50;91.30
18073;DHT22;9161;47.348;9.648;2023-08-24T14:07:25;41.10;89.20
18073;DHT22;9161;47.348;9.648;2023-08-24T14:12:29;41.60;91.20
18073;DHT22;9161;47.348;9.648;2023-08-24T14:17:32;42.40;88.80
18073;DHT22;9161;47.348;9.648;2023-08-24T14:22:36;41.60;88.70
18073;DHT22;9161;47.348;9.648;2023-08-24T14:27:40;41.80;90.20
18073;DHT22;9161;47.348;9.648;2023-08-24T14:32:50;42.10;88.30
18073;DHT22;9161;47.348;9.648;2023-08-24T14:37:54;42.00;90.70
18073;DHT22;9161;47.348;9.648;2023-08-24T14:43:00;41.60;87.20
18073;DHT22;9161;47.348;9.648;2023-08-24T14:48:04;41.70;89.10
18073;DHT22;9161;47.348;9.648;2023-08-24T14:53:06;40.90;88.60
18073;DHT22;9161;47.348;9.648;2023-08-24T14:58:10;41.00;90.30
18073;DHT22;9161;47.348;9.648;2023-08-24T15:03:12;41.00;90.80
18073;DHT22;9161;47.348;9.648;2023-08-24T15:08:14;39.90;88.90
18073;DHT22;9161;47.348;9.648;2023-08-24T15:13:17;40.20;89.20
18073;DHT22;9161;47.348;9.648;2023-08-24T15:18:20;41.70;90.30
18073;DHT22;9161;47.348;9.648;2023-08-24T15:23:24;41.70;87.80
18073;DHT22;9161;47.348;9.648;2023-08-24T15:28:36;41.30;90.10
18073;DHT22;9161;47.348;9.648;2023-08-24T15:33:39;40.80;90.30
18073;DHT22;9161;47.348;9.648;2023-08-24T15:38:41;40.60;88.70
18073;DHT22;9161;47.348;9.648;2023-08-24T15:43:45;40.70;88.20
18073;DHT22;9161;47.348;9.648;2023-08-24T15:48:48;40.50;87.80
18073;DHT22;9161;47.348;9.648;2023-08-24T15:53:52;39.90;89.30
18073;DHT22;9161;47.348;9.648;2023-08-24T15:58:57;39.40;90.60
18073;DHT22;9161;47.348;9.648;2023-08-24T16:04:01;39.20;91.00
18073;DHT22;9161;47.348;9.648;2023-08-24T16:09:04;38.70;93.10
18073;DHT22;9161;47.348;9.648;2023-08-24T16:14:10;37.80;92.50
18073;DHT22;9161;47.348;9.648;2023-08-24T16:19:15;35.50;95.30
18073;DHT22;9161;47.348;9.648;2023-08-24T16:24:19;34.60;95.50
18073;DHT22;9161;47.348;9.648;2023-08-24T16:29:24;34.60;94.80
18073;DHT22;9161;47.348;9.648;2023-08-24T16:34:28;34.40;95.80
18073;DHT22;9161;47.348;9.648;2023-08-24T16:39:32;34.00;95.90
18073;DHT22;9161;47.348;9.648;2023-08-24T16:44:37;33.00;99.40
18073;DHT22;9161;47.348;9.648;2023-08-24T16:49:42;32.50;99.40
18073;DHT22;9161;47.348;9.648;2023-08-24T16:54:46;32.50;99.90
18073;DHT22;9161;47.348;9.648;2023-08-24T16:59:52;32.40;99.90
18073;DHT22;9161;47.348;9.648;2023-08-24T17:04:54;31.90;99.90
18073;DHT22;9161;47.348;9.648;2023-08-24T17:09:57;31.60;99.90
18073;DHT22;9161;47.348;9.648;2023-08-24T17:15:02;31.00;99.90
18073;DHT22;9161;47.348;9.648;2023-08-24T17:20:07;30.90;99.90
18073;DHT22;9161;47.348;9.648;2023-08-24T17:25:12;30.80;99.90
18073;DHT22;9161;47.348;9.648;2023-08-24T17:30:18;30.40;99.90
18073;DHT22;9161;47.348;9.648;2023-08-24T17:35:23;27.90;99.90
18073;DHT22;9161;47.348;9.648;2023-08-24T17:40:29;24.70;99.90
18073;DHT22;9161;47.348;9.648;2023-08-24T17:45:36;24.20;99.90
18073;DHT22;9161;47.348;9.648;2023-08-24T17:50:42;23.60;99.90
18073;DHT22;9161;47.348;9.648;2023-08-24T17:55:53;23.40;99.90
18073;DHT22;9161;47.348;9.648;2023-08-24T18:00:59;23.40;99.90
18073;DHT22;9161;47.348;9.648;2023-08-24T18:06:05;24.50;99.90
18073;DHT22;9161;47.348;9.648;2023-08-24T18:11:11;24.20;99.90
18073;DHT22;9161;47.348;9.648;2023-08-24T18:16:19;24.30;99.90
18073;DHT22;9161;47.348;9.648;2023-08-24T18:21:28;24.50;99.90
18073;DHT22;9161;47.348;9.648;2023-08-24T18:26:33;24.60;99.90
18073;DHT22;9161;47.348;9.648;2023-08-24T18:31:41;24.50;99.90
18073;DHT22;9161;47.348;9.648;2023-08-24T18:36:46;25.30;99.90
18073;DHT22;9161;47.348;9.648;2023-08-24T18:41:52;23.10;99.90
18073;DHT22;9161;47.348;9.648;2023-08-24T18:46:59;22.80;99.90
18073;DHT22;9161;47.348;9.648;2023-08-24T18:52:04;22.80;99.90
18073;DHT22;9161;47.348;9.648;2023-08-24T18:57:09;22.80;99.90
18073;DHT22;9161;47.348;9.648;2023-08-24T19:02:16;22.60;99.90
18073;DHT22;9161;47.348;9.648;2023-08-24T19:07:23;23.50;99.90
18073;DHT22;9161;47.348;9.648;2023-08-24T19:12:31;23.60;99.90
18073;DHT22;9161;47.348;9.648;2023-08-24T19:17:38;23.90;99.90
18073;DHT22;9161;47.348;9.648;2023-08-24T19:22:44;23.20;99.90
18073;DHT22;9161;47.348;9.648;2023-08-24T19:27:52;22.80;99.90
18073;DHT22;9161;47.348;9.648;2023-08-24T19:33:04;22.30;99.90
18073;DHT22;9161;47.348;9.648;2023-08-24T19:38:10;22.10;99.90
18073;DHT22;9161;47.348;9.648;2023-08-24T19:43:16;22.00;99.90
18073;DHT22;9161;47.348;9.648;2023-08-24T19:48:22;21.80;99.90
18073;DHT22;9161;47.348;9.648;2023-08-24T19:53:28;21.80;99.90
18073;DHT22;9161;47.348;9.648;2023-08-24T19:58:36;21.70;99.90
18073;DHT22;9161;47.348;9.648;2023-08-24T20:03:42;21.60;99.90
18073;DHT22;9161;47.348;9.648;2023-08-24T20:08:49;21.60;99.90
18073;DHT22;9161;47.348;9.648;2023-08-24T20:13:55;21.70;99.90
18073;DHT22;9161;47.348;9.648;2023-08-24T20:19:03;21.60;99.90
18073;DHT22;9161;47.348;9.648;2023-08-24T20:24:09;21.30;99.90
18073;DHT22;9161;47.348;9.648;2023-08-24T20:29:15;21.70;99.90
18073;DHT22;9161;47.348;9.648;2023-08-24T20:34:24;21.50;99.90
18073;DHT22;9161;47.348;9.648;2023-08-24T20:39:31;21.30;99.90
18073;DHT22;9161;47.348;9.648;2023-08-24T20:44:37;21.30;99.90
18073;DHT22;9161;47.348;9.648;2023-08-24T20:49:44;21.20;99.90
18073;DHT22;9161;47.348;9.648;2023-08-24T20:54:50;21.20;99.90
18073;DHT22;9161;47.348;9.648;2023-08-24T20:59:54;21.20;99.90
18073;DHT22;9161;47.348;9.648;2023-08-24T21:04:59;21.30;99.90
18073;DHT22;9161;47.348;9.648;2023-08-24T21:10:06;21.30;99.90
18073;DHT22;9161;47.348;9.648;2023-08-24T21:15:10;21.20;99.90
18073;DHT22;9161;47.348;9.648;2023-08-24T21:20:17;21.20;99.90
18073;DHT22;9161;47.348;9.648;2023-08-24T21:25:21;21.30;99.90
18073;DHT22;9161;47.348;9.648;2023-08-24T21:30:25;21.20;99.90
18073;DHT22;9161;47.348;9.648;2023-08-24T21:35:30;20.90;99.90
18073;DHT22;9161;47.348;9.648;2023-08-24T21:40:34;20.90;99.90
18073;DHT22;9161;47.348;9.648;2023-08-24T21:45:40;20.90;99.90
18073;DHT22;9161;47.348;9.648;2023-08-24T21:50:45;20.90;99.90
18073;DHT22;9161;47.348;9.648;2023-08-24T21:55:49;20.90;99.90
18073;DHT22;9161;47.348;9.648;2023-08-24T22:00:59;21.00;99.90
18073;DHT22;9161;47.348;9.648;2023-08-24T22:06:07;20.90;99.90
18073;DHT22;9161;47.348;9.648;2023-08-24T22:11:11;20.90;99.90
18073;DHT22;9161;47.348;9.648;2023-08-24T22:16:16;20.80;99.90
18073;DHT22;9161;47.348;9.648;2023-08-24T22:21:22;20.80;99.90
18073;DHT22;9161;47.348;9.648;2023-08-24T22:26:26;20.80;99.90
18073;DHT22;9161;47.348;9.648;2023-08-24T22:31:29;20.70;99.90
18073;DHT22;9161;47.348;9.648;2023-08-24T22:36:34;20.60;99.90
18073;DHT22;9161;47.348;9.648;2023-08-24T22:41:36;20.50;99.90
18073;DHT22;9161;47.348;9.648;2023-08-24T22:46:39;20.50;99.90
18073;DHT22;9161;47.348;9.648;2023-08-24T22:51:44;20.80;99.90
18073;DHT22;9161;47.348;9.648;2023-08-24T22:56:49;21.00;99.90
18073;DHT22;9161;47.348;9.648;2023-08-24T23:01:53;21.10;99.90
18073;DHT22;9161;47.348;9.648;2023-08-24T23:07:14;21.10;99.90
18073;DHT22;9161;47.348;9.648;2023-08-24T23:12:18;21.00;99.90
18073;DHT22;9161;47.348;9.648;2023-08-24T23:17:23;20.90;99.90
18073;DHT22;9161;47.348;9.648;2023-08-24T23:22:28;20.80;99.90
18073;DHT22;9161;47.348;9.648;2023-08-24T23:27:30;20.70;99.90
18073;DHT22;9161;47.348;9.648;2023-08-24T23:32:35;20.80;99.90
18073;DHT22;9161;47.348;9.648;2023-08-24T23:37:39;20.80;99.90
18073;DHT22;9161;47.348;9.648;2023-08-24T23:42:42;20.80;99.90
18073;DHT22;9161;47.348;9.648;2023-08-24T23:47:45;20.70;99.90
18073;DHT22;9161;47.348;9.648;2023-08-24T23:52:51;20.70;99.90
18073;DHT22;9161;47.348;9.648;2023-08-24T23:57:54;20.80;99.90
